KGTUKBMQ

Guest
Details From KGTU - Georgetown Muni
To KBMQ - BURNET MUNI KATE CRADDOCK FLD
Flight Number -
Tags generated
Created
Modified
Stats Distance 29 nm / 54 km
Max Altitude 1,700 ft / 518 m
Waypoints 3
Social Downloads 1
Likes 0
Share VATSIM

Download

Looking for another format? Having issues loading an existing format? Contact us
Advertisement - Login to hide

Notes

Basic altitude profile: - Ascent Rate: 2500ft/min - Ascent Speed: 250kts - Cruise Altitude: 35000ft - Cruise Speed: 420kts - Descent Rate: 1500ft/min - Descent Speed: 250kts Options: - Use NATs: yes - Use PACOTS: yes - Use low airways: yes - Use high airways: yes

Route

KGTU KALLA KBMQ

ID Type Via Altitude Latitude Longitude Leg Dist Tot Dist Heading (true) Name
O KGTU APT - 0 ft / 0 m 30.67878˚ -97.67949˚ - 0 nm - Georgetown Muni
KALLA FIX - 1,700 ft / 518 m 30.72108˚ -98.07735˚ 20 nm 20 nm 277° / 277° -
O KBMQ APT - 0 ft / 0 m 30.73893˚ -98.23861˚ 8 nm 29 nm 277° / 277° BURNET MUNI KATE CRADDOCK FLD

Altitude Profile

Advertisement - Login to hide

KGTU

Details ICAO KGTU (GTU)
Name Georgetown Muni
Region United States
Timezone America/Chicago (UTC-6.0)
Stats Elevation 790 ft / 241 m (AMSL)
Location 30.678783° -97.679490°
Runways 2
Magnetic Variation 3.816° E

METAR

KGTU 131656Z 20007KT 10SM CLR 11/00 A3015 RMK AO2 SLP215 T01110000

Decode

TAF

Not found

Departure Runways

ID Width Length Bearing (true) Bearing (mag) Surface Threshold Offset Overrun Length
11 75 ft / 23 m 4,098 ft / 1,249 m 120.69° 116.87° Asphalt 0 ft / 0 m 0 ft / 0 m
18 100 ft / 30 m 5,016 ft / 1,529 m 183.55° 179.73° Asphalt 0 ft / 0 m 0 ft / 0 m
29 75 ft / 23 m 4,098 ft / 1,249 m 300.69° 296.87° Asphalt 0 ft / 0 m 0 ft / 0 m
36 100 ft / 30 m 5,016 ft / 1,529 m 3.55° 359.73° Asphalt 0 ft / 0 m 0 ft / 0 m

KBMQ

Details ICAO KBMQ (BMQ)
Name BURNET MUNI KATE CRADDOCK FLD
Region United States
Timezone America/Chicago (UTC-6.0)
Stats Elevation 1,284 ft / 391 m (AMSL)
Location 30.738928° -98.238609°
Runways 1
Magnetic Variation 4.130° E

METAR

KBMQ 131653Z AUTO 21007KT 10SM CLR 11/M01 A3015 RMK AO2 SLP210 T01061006

Decode

TAF

Not found

Destination Runways

ID Width Length Bearing (true) Bearing (mag) Surface Threshold Offset Overrun Length
01 75 ft / 23 m 5,015 ft / 1,529 m 16.07° 11.94° Asphalt 0 ft / 0 m 0 ft / 0 m
19 75 ft / 23 m 5,015 ft / 1,529 m 196.07° 191.94° Asphalt 0 ft / 0 m 0 ft / 0 m